Time;durP1;ratioP1;P1;durP2;ratioP2;P2;SDS_P1;SDS_P2;PMS_P1;PMS_P2;Temp;Humidity;BMP_temperature;BMP_pressure;BME280_temperature;BME280_humidity;BME280_pressure;Samples;Min_cycle;Max_cycle;Signal;HPM_P1;HPM_P2
2020/12/09 00:01:20;;;;;;;88.60;41.38;;;;;;;-1.36;100.00;97699.34;5074984;28;20475;-70
2020/12/09 00:03:46;;;;;;;90.95;43.45;;;;;;;-1.20;100.00;97708.31;5075388;28;20040;-71
2020/12/09 00:06:12;;;;;;;87.35;43.05;;;;;;;-1.13;100.00;97714.09;5074571;28;20403;-72
2020/12/09 00:08:39;;;;;;;86.65;40.85;;;;;;;-1.29;100.00;97704.28;5073901;28;20089;-71
2020/12/09 00:11:07;;;;;;;79.65;41.40;;;;;;;-1.10;100.00;97701.16;5074822;28;20059;-70
2020/12/09 00:13:33;;;;;;;90.30;42.65;;;;;;;-1.17;100.00;97705.66;5075209;28;20115;-71
2020/12/09 00:15:59;;;;;;;80.25;40.25;;;;;;;-1.21;100.00;97700.63;5074177;28;20171;-77
2020/12/09 00:18:24;;;;;;;79.97;41.60;;;;;;;-1.14;100.00;97715.00;5075192;28;20047;-71
2020/12/09 00:20:50;;;;;;;85.28;40.13;;;;;;;-1.09;100.00;97713.97;5074945;28;20049;-71
2020/12/09 00:23:16;;;;;;;81.50;40.58;;;;;;;-1.05;100.00;97719.00;5074176;28;20581;-71
2020/12/09 00:25:42;;;;;;;78.25;40.10;;;;;;;-1.24;100.00;97696.41;5074884;28;20055;-70
2020/12/09 00:28:11;;;;;;;77.90;39.88;;;;;;;-1.14;100.00;97718.41;5073946;28;20068;-72
2020/12/09 00:30:36;;;;;;;82.72;40.85;;;;;;;-1.24;100.00;97705.88;5074561;28;20095;-71
2020/12/09 00:33:02;;;;;;;79.93;40.47;;;;;;;-1.18;100.00;97724.53;5074429;28;20052;-71
2020/12/09 00:35:28;;;;;;;80.80;41.92;;;;;;;-1.14;100.00;97712.44;5073325;28;20056;-70
2020/12/09 00:37:54;;;;;;;76.75;40.50;;;;;;;-1.30;100.00;97710.31;5074457;28;20522;-70
2020/12/09 00:40:19;;;;;;;79.60;40.75;;;;;;;-1.27;100.00;97717.94;5074102;28;20052;-71
2020/12/09 00:42:45;;;;;;;81.18;40.50;;;;;;;-1.26;100.00;97723.94;5074510;28;20124;-70
2020/12/09 00:45:12;;;;;;;84.28;42.78;;;;;;;-1.29;100.00;97727.41;5073548;28;20091;-71
2020/12/09 00:47:41;;;;;;;84.05;42.33;;;;;;;-1.29;100.00;97729.16;5074250;28;20053;-69
2020/12/09 00:52:40;;;;;;;85.43;43.22;;;;;;;-1.43;100.00;97718.44;5074415;28;20479;-71
2020/12/09 00:55:06;;;;;;;84.00;42.95;;;;;;;-1.34;100.00;97731.03;5073907;28;20055;-72
2020/12/09 00:57:32;;;;;;;87.70;42.55;;;;;;;-1.29;100.00;97726.59;5073126;28;20052;-71
2020/12/09 00:59:58;;;;;;;84.50;43.17;;;;;;;-1.32;100.00;97716.41;5090029;28;20493;-71
2020/12/09 01:02:24;;;;;;;89.43;44.60;;;;;;;-1.48;100.00;97727.13;5073588;28;20044;-71
2020/12/09 01:04:50;;;;;;;92.18;43.90;;;;;;;-1.38;100.00;97726.84;5074104;28;20406;-70
2020/12/09 01:07:16;;;;;;;94.82;44.28;;;;;;;-1.32;100.00;97721.53;5073568;28;20089;-71
2020/12/09 01:09:42;;;;;;;82.90;40.63;;;;;;;-1.27;100.00;97720.53;5074255;28;20102;-71
2020/12/09 01:12:08;;;;;;;86.55;43.45;;;;;;;-1.38;100.00;97719.16;5088802;28;20053;-71
2020/12/09 01:14:34;;;;;;;94.30;45.30;;;;;;;-1.37;100.00;97721.66;5073758;28;20499;-71
2020/12/09 01:17:02;;;;;;;90.85;45.28;;;;;;;-1.53;100.00;97699.84;5074116;28;20092;-70
2020/12/09 01:19:28;;;;;;;93.40;46.58;;;;;;;-1.57;100.00;97709.41;5073912;28;20052;-70
2020/12/09 01:21:54;;;;;;;94.35;45.60;;;;;;;-1.43;100.00;97726.16;5073801;28;20059;-70
2020/12/09 01:24:21;;;;;;;97.07;46.95;;;;;;;-1.50;100.00;97723.78;5072884;28;20055;-71
2020/12/09 01:26:48;;;;;;;93.32;44.72;;;;;;;-1.54;100.00;97731.63;5073887;28;20072;-71
2020/12/09 01:29:14;;;;;;;88.80;44.03;;;;;;;-1.53;100.00;97718.72;5073320;28;20440;-71
2020/12/09 01:31:40;;;;;;;83.80;43.05;;;;;;;-1.45;100.00;97736.50;5073992;28;20044;-70
2020/12/09 01:34:06;;;;;;;84.40;42.17;;;;;;;-1.39;100.00;97736.31;5072899;28;20052;-71
2020/12/09 01:36:32;;;;;;;82.68;42.78;;;;;;;-1.37;100.00;97724.25;5073740;28;20045;-71
2020/12/09 01:38:58;;;;;;;79.35;41.55;;;;;;;-1.39;100.00;97725.16;5073514;28;20119;-70
2020/12/09 01:41:24;;;;;;;77.38;39.90;;;;;;;-1.40;100.00;97719.19;5072826;28;20143;-71
2020/12/09 01:43:52;;;;;;;79.90;39.95;;;;;;;-1.53;100.00;97711.00;5073068;28;20083;-71
2020/12/09 01:46:26;;;;;;;85.13;42.05;;;;;;;-1.51;100.00;97727.22;5072865;28;20072;-72
2020/12/09 01:48:53;;;;;;;79.90;40.58;;;;;;;-1.53;100.00;97718.72;5073462;28;20057;-71
2020/12/09 01:51:24;;;;;;;73.85;37.22;;;;;;;-1.39;100.00;97725.16;5072654;28;20044;-72
2020/12/09 01:53:55;;;;;;;75.45;39.38;;;;;;;-1.47;100.00;97721.09;5073716;28;20076;-71
2020/12/09 01:56:21;;;;;;;75.75;39.83;;;;;;;-1.47;100.00;97723.69;5072665;28;20044;-71
2020/12/09 01:58:51;;;;;;;79.55;39.97;;;;;;;-1.38;100.00;97711.44;5073334;28;20050;-71
2020/12/09 02:01:18;;;;;;;79.78;38.58;;;;;;;-1.33;100.00;97719.84;5066914;28;20395;-71
2020/12/09 02:03:47;;;;;;;75.00;38.30;;;;;;;-1.33;100.00;97714.69;5064322;28;20053;-71
2020/12/09 02:06:15;;;;;;;76.95;38.85;;;;;;;-1.40;100.00;97713.22;5067692;28;20056;-71
2020/12/09 02:08:42;;;;;;;76.72;38.42;;;;;;;-1.43;100.00;97711.56;5069589;28;20502;-70
2020/12/09 02:11:08;;;;;;;83.18;39.25;;;;;;;-1.46;100.00;97699.63;5072505;28;20048;-71
2020/12/09 02:13:33;;;;;;;76.57;40.13;;;;;;;-1.52;100.00;97704.13;5072915;28;20453;-70
2020/12/09 02:16:00;;;;;;;76.07;37.47;;;;;;;-1.57;100.00;97717.13;5072759;28;20049;-71
2020/12/09 02:18:27;;;;;;;74.15;37.33;;;;;;;-1.57;100.00;97717.13;5071957;28;20319;-70
2020/12/09 02:20:53;;;;;;;70.57;35.85;;;;;;;-1.76;100.00;97713.38;5072507;28;20060;-70
2020/12/09 02:23:19;;;;;;;75.35;37.90;;;;;;;-1.89;100.00;97713.72;5072325;28;20071;-70
2020/12/09 02:25:46;;;;;;;77.88;37.38;;;;;;;-1.95;100.00;97708.75;5072590;28;20049;-70
2020/12/09 02:28:12;;;;;;;83.25;40.10;;;;;;;-1.98;100.00;97701.13;5071757;28;20049;-70
2020/12/09 02:30:38;;;;;;;84.38;39.50;;;;;;;-2.02;100.00;97702.94;5072649;28;20056;-70
2020/12/09 02:33:04;;;;;;;83.53;39.92;;;;;;;-2.10;100.00;97701.44;5072413;28;20037;-70
2020/12/09 02:35:30;;;;;;;94.38;41.40;;;;;;;-1.98;100.00;97703.69;5071925;28;20470;-71
2020/12/09 02:37:56;;;;;;;85.63;40.40;;;;;;;-2.10;100.00;97694.59;5087919;28;20059;-71
2020/12/09 02:40:22;;;;;;;85.88;41.28;;;;;;;-2.09;100.00;97695.44;5071640;28;20048;-71
2020/12/09 02:42:49;;;;;;;86.68;39.65;;;;;;;-2.00;100.00;97693.44;5072649;28;20101;-71
2020/12/09 02:45:16;;;;;;;84.93;38.75;;;;;;;-2.01;100.00;97681.50;5071885;28;20044;-70
2020/12/09 02:47:42;;;;;;;91.10;41.05;;;;;;;-2.09;100.00;97678.28;5072126;28;20386;-71
2020/12/09 02:50:08;;;;;;;84.60;40.63;;;;;;;-1.95;100.00;97683.06;5071964;28;20103;-75
2020/12/09 02:52:34;;;;;;;88.25;39.75;;;;;;;-2.05;100.00;97679.91;5072053;28;20053;-71
2020/12/09 02:55:03;;;;;;;90.68;42.13;;;;;;;-1.98;100.00;97675.44;5072334;28;20045;-70
2020/12/09 02:57:28;;;;;;;81.57;37.80;;;;;;;-1.89;100.00;97676.91;5071519;28;20063;-70
2020/12/09 02:59:54;;;;;;;76.25;37.13;;;;;;;-1.97;100.00;97659.13;5072385;28;20472;-70
2020/12/09 03:02:20;;;;;;;79.85;38.55;;;;;;;-1.96;100.00;97667.69;5087428;28;20582;-70
2020/12/09 03:04:45;;;;;;;79.20;37.60;;;;;;;-1.90;100.00;97670.94;5072005;28;20376;-70
2020/12/09 03:07:11;;;;;;;81.93;37.80;;;;;;;-1.96;100.00;97663.41;5071456;28;20186;-70
2020/12/09 03:09:37;;;;;;;76.78;35.65;;;;;;;-1.82;100.00;97676.69;5072205;28;20079;-70
2020/12/09 03:12:03;;;;;;;78.80;36.38;;;;;;;-1.73;100.00;97669.59;5071860;28;20471;-70
2020/12/09 03:14:28;;;;;;;76.53;35.42;;;;;;;-1.85;100.00;97671.66;5070471;28;20052;-70
2020/12/09 03:16:55;;;;;;;75.57;35.65;;;;;;;-1.85;100.00;97675.94;5072002;28;20040;-71
2020/12/09 03:19:21;;;;;;;75.03;35.80;;;;;;;-1.98;100.00;97671.16;5070992;28;20051;-70
2020/12/09 03:21:46;;;;;;;67.32;33.28;;;;;;;-1.74;100.00;97689.31;5074289;28;20054;-70
2020/12/09 03:24:12;;;;;;;68.82;33.55;;;;;;;-1.84;100.00;97685.31;5075345;28;20135;-70
2020/12/09 03:26:38;;;;;;;72.57;33.15;;;;;;;-1.87;100.00;97699.13;5091747;28;20055;-70
2020/12/09 03:29:04;;;;;;;73.32;35.80;;;;;;;-1.83;100.00;97694.72;5074522;28;20545;-70
2020/12/09 03:31:30;;;;;;;72.35;35.40;;;;;;;-1.91;100.00;97691.53;5075625;28;20047;-71
2020/12/09 03:33:56;;;;;;;67.15;34.53;;;;;;;-1.81;100.00;97688.66;5075719;28;20098;-70
2020/12/09 03:36:22;;;;;;;62.92;33.20;;;;;;;-1.84;100.00;97670.78;5075195;28;20045;-71
2020/12/09 03:38:48;;;;;;;65.15;33.70;;;;;;;-1.86;100.00;97676.81;5075730;28;20041;-71
2020/12/09 03:41:14;;;;;;;60.60;29.30;;;;;;;-1.79;100.00;97670.63;5075075;28;20048;-71
2020/12/09 03:43:39;;;;;;;65.03;32.63;;;;;;;-1.78;100.00;97680.00;5075484;28;20452;-71
2020/12/09 03:46:08;;;;;;;57.58;29.73;;;;;;;-1.71;100.00;97681.53;5075294;28;20502;-70
2020/12/09 03:48:33;;;;;;;64.40;32.85;;;;;;;-1.66;100.00;97668.53;5074695;28;20048;-71
2020/12/09 03:50:59;;;;;;;64.00;32.78;;;;;;;-1.81;100.00;97683.53;5075369;28;20052;-71
2020/12/09 03:53:25;;;;;;;64.88;32.72;;;;;;;-1.83;100.00;97680.13;5072373;28;20093;-71
2020/12/09 03:55:51;;;;;;;65.28;32.75;;;;;;;-1.82;100.00;97681.00;5091055;28;20099;-70
2020/12/09 03:58:16;;;;;;;72.57;32.97;;;;;;;-1.93;100.00;97689.00;5074690;28;20092;-70
2020/12/09 04:00:43;;;;;;;64.03;29.42;;;;;;;-2.03;100.00;97677.28;5074037;28;20040;-69
2020/12/09 04:03:08;;;;;;;75.85;35.63;;;;;;;-1.89;100.00;97688.03;5075697;28;20460;-70
2020/12/09 04:05:34;;;;;;;63.90;31.20;;;;;;;-1.69;100.00;97691.75;5074567;28;20065;-70
2020/12/09 04:08:00;;;;;;;60.35;30.70;;;;;;;-1.76;100.00;97685.09;5090741;28;20051;-70
2020/12/09 04:10:27;;;;;;;65.75;32.10;;;;;;;-1.72;100.00;97686.72;5059013;28;20073;-69
2020/12/09 04:12:53;;;;;;;61.95;31.02;;;;;;;-1.84;100.00;97673.34;5055061;28;20057;-70
2020/12/09 04:15:19;;;;;;;57.85;30.65;;;;;;;-1.74;100.00;97676.47;5054423;28;20056;-71
2020/12/09 04:17:45;;;;;;;61.47;31.00;;;;;;;-1.78;100.00;97666.31;5054985;28;20053;-69
2020/12/09 04:20:12;;;;;;;60.95;30.67;;;;;;;-1.66;99.93;97678.81;5055242;28;20045;-71
2020/12/09 04:22:38;;;;;;;63.13;31.25;;;;;;;-1.67;100.00;97679.69;5072947;28;20052;-71
2020/12/09 04:25:05;;;;;;;60.90;30.98;;;;;;;-1.91;100.00;97678.69;5074541;28;20048;-71
2020/12/09 04:27:30;;;;;;;62.47;32.13;;;;;;;-1.85;100.00;97681.91;5074058;28;20048;-70
2020/12/09 04:29:56;;;;;;;68.15;32.90;;;;;;;-1.88;100.00;97683.75;5074377;28;20448;-70
2020/12/09 04:32:22;;;;;;;64.35;33.40;;;;;;;-1.99;100.00;97684.03;5073256;28;20665;-70
2020/12/09 04:34:48;;;;;;;66.18;33.03;;;;;;;-2.06;100.00;97669.66;5073584;28;20048;-69
2020/12/09 04:37:18;;;;;;;68.15;32.75;;;;;;;-1.95;100.00;97665.06;5074459;28;20042;-76
2020/12/09 04:39:44;;;;;;;61.50;31.27;;;;;;;-1.88;100.00;97666.59;5074161;28;20076;-69
2020/12/09 04:42:17;;;;;;;63.53;30.63;;;;;;;-1.85;100.00;97674.22;5090096;28;20060;-69
2020/12/09 04:44:43;;;;;;;;;;;;;;;-1.85;100.00;97671.66;5090271;28;20048;-69
2020/12/09 04:47:24;;;;;;;59.92;29.52;;;;;;;-1.91;100.00;97674.38;5073565;28;19921;-69
2020/12/09 04:50:03;;;;;;;62.97;31.85;;;;;;;-1.85;100.00;97658.78;5074836;28;20101;-69
2020/12/09 04:52:47;;;;;;;64.60;31.55;;;;;;;-1.83;100.00;97653.63;5073923;28;20048;-69
2020/12/09 04:55:17;;;;;;;58.92;30.23;;;;;;;-1.84;100.00;97670.78;5074181;28;20044;-73
2020/12/09 04:58:06;;;;;;;61.47;31.58;;;;;;;-1.76;99.81;97654.25;5073808;28;20045;-70
2020/12/09 05:00:32;;;;;;;58.67;30.20;;;;;;;-1.88;100.00;97651.19;5073399;28;20040;-70
2020/12/09 05:03:12;;;;;;;64.38;32.97;;;;;;;-1.80;100.00;97653.53;5074088;28;20067;-69
2020/12/09 05:05:41;;;;;;;66.82;32.47;;;;;;;-1.87;100.00;97655.44;5073686;28;20499;-68
2020/12/09 05:08:22;;;;;;;63.75;31.83;;;;;;;-1.95;100.00;97659.09;5073776;28;20430;-68
2020/12/09 05:10:52;;;;;;;61.67;30.00;;;;;;;-1.86;100.00;97656.28;5073880;28;20089;-69
2020/12/09 05:13:24;;;;;;;60.40;30.55;;;;;;;-1.88;100.00;97658.06;5073672;28;20044;-71
2020/12/09 05:15:57;;;;;;;60.78;29.60;;;;;;;-1.84;99.98;97675.91;5074157;28;20049;-69
2020/12/09 05:18:35;;;;;;;56.97;29.63;;;;;;;-2.00;100.00;97666.94;5072930;28;20068;-69
2020/12/09 05:21:09;;;;;;;68.18;32.75;;;;;;;-2.01;100.00;97678.09;5073561;28;20051;-69
2020/12/09 05:23:41;;;;;;;70.60;31.20;;;;;;;-2.12;100.00;97667.28;5073008;28;20037;-69
2020/12/09 05:26:17;;;;;;;71.10;34.50;;;;;;;-2.14;100.00;97666.47;5073937;28;20044;-69
2020/12/09 05:28:44;;;;;;;71.70;34.40;;;;;;;-2.01;100.00;97670.38;5073100;28;20492;-70
2020/12/09 05:31:21;;;;;;;65.10;31.95;;;;;;;-1.92;100.00;97670.13;5073317;28;20048;-69
2020/12/09 05:33:47;;;;;;;65.03;32.42;;;;;;;-2.11;100.00;97679.25;5073673;28;20356;-70
2020/12/09 05:36:13;;;;;;;68.03;31.10;;;;;;;-2.12;100.00;97680.94;5073583;28;20060;-68
2020/12/09 05:38:39;;;;;;;82.43;37.28;;;;;;;-2.09;100.00;97677.47;5073250;28;20078;-69
2020/12/09 05:41:12;;;;;;;75.50;34.42;;;;;;;-2.12;100.00;97674.97;5073586;28;20045;-69
2020/12/09 05:43:42;;;;;;;68.50;32.33;;;;;;;-1.99;100.00;97684.03;5071992;28;20056;-69
2020/12/09 05:46:09;;;;;;;68.30;33.22;;;;;;;-1.98;100.00;97675.44;5088868;28;20052;-69
2020/12/09 05:48:35;;;;;;;60.17;30.20;;;;;;;-2.05;100.00;97677.34;5072165;28;20127;-70
2020/12/09 05:51:02;;;;;;;63.92;31.17;;;;;;;-2.18;100.00;97679.41;5073064;28;20128;-70
2020/12/09 05:53:30;;;;;;;64.85;33.28;;;;;;;-2.04;100.00;97691.00;5072710;28;20045;-68
2020/12/09 05:56:14;;;;;;;60.22;30.30;;;;;;;-2.03;100.00;97690.13;5073048;28;20036;-68
2020/12/09 05:58:45;;;;;;;68.82;32.75;;;;;;;-2.09;100.00;97695.44;5072811;28;20029;-67
2020/12/09 06:01:19;;;;;;;61.45;32.05;;;;;;;-2.16;100.00;97692.19;5072619;28;20045;-67
2020/12/09 06:03:48;;;;;;;67.82;33.00;;;;;;;-2.17;100.00;97711.06;5073030;28;20128;-71
2020/12/09 06:06:19;;;;;;;66.35;32.97;;;;;;;-2.12;100.00;97708.38;5072710;28;20052;-71
2020/12/09 06:08:47;;;;;;;64.13;31.20;;;;;;;-2.20;100.00;97698.28;5072471;28;20044;-71
2020/12/09 06:11:18;;;;;;;59.20;30.50;;;;;;;-2.00;99.09;97693.44;5072669;28;20060;-70
2020/12/09 06:13:45;;;;;;;65.97;33.08;;;;;;;-2.17;100.00;97714.44;5070934;28;20048;-72
2020/12/09 06:16:13;;;;;;;63.60;30.90;;;;;;;-2.14;99.51;97712.72;5072272;28;20044;-71
2020/12/09 06:18:43;;;;;;;61.17;30.10;;;;;;;-2.24;100.00;97722.34;5072207;28;20057;-74
2020/12/09 06:21:08;;;;;;;65.18;32.88;;;;;;;-2.30;100.00;97731.09;5072431;28;20406;-71
2020/12/09 06:23:34;;;;;;;66.32;32.08;;;;;;;-2.26;100.00;97742.94;5068633;28;20052;-72
2020/12/09 06:26:02;;;;;;;62.78;30.85;;;;;;;-2.20;100.00;97747.91;5073026;28;20482;-73
2020/12/09 06:28:30;;;;;;;68.47;33.40;;;;;;;-2.32;100.00;97732.00;5072195;28;20074;-73
2020/12/09 06:30:59;;;;;;;68.80;32.35;;;;;;;-2.39;100.00;97737.28;5069819;28;20435;-71
2020/12/09 06:33:39;;;;;;;63.97;31.92;;;;;;;-2.37;100.00;97739.81;5047006;28;20045;-73
2020/12/09 06:36:15;;;;;;;65.40;32.25;;;;;;;-2.40;100.00;97747.59;5049891;28;20664;-72
2020/12/09 06:39:01;;;;;;;65.70;32.20;;;;;;;-2.25;100.00;97741.22;5067457;28;20036;-72
2020/12/09 06:41:27;;;;;;;64.38;31.23;;;;;;;-2.41;100.00;97748.47;5069634;28;20122;-75
2020/12/09 06:44:13;;;;;;;66.13;32.58;;;;;;;-2.45;100.00;97739.16;5051364;28;20045;-72
2020/12/09 06:46:47;;;;;;;57.97;28.17;;;;;;;-2.57;100.00;97741.13;5048997;28;20056;-72
2020/12/09 06:49:32;;;;;;;70.75;33.05;;;;;;;-2.62;100.00;97735.28;5068298;28;20072;-72
2020/12/09 06:51:59;;;;;;;64.22;31.20;;;;;;;-2.32;100.00;97742.25;5059957;28;20048;-72
2020/12/09 06:54:47;;;;;;;64.30;32.60;;;;;;;-2.35;100.00;97740.59;5065491;28;20036;-71
2020/12/09 06:57:18;;;;;;;72.85;33.38;;;;;;;-2.52;100.00;97741.03;5070565;28;20137;-71
2020/12/09 06:59:45;;;;;;;72.97;33.80;;;;;;;-2.56;100.00;97747.97;5068062;28;20415;-72
2020/12/09 07:02:27;;;;;;;76.68;34.85;;;;;;;-2.44;100.00;97751.97;5067518;28;20422;-72
2020/12/09 07:04:52;;;;;;;74.03;35.65;;;;;;;-2.38;100.00;97749.25;5069708;28;20045;-72
2020/12/09 07:07:35;;;;;;;78.40;37.83;;;;;;;-2.42;100.00;97759.63;5070995;28;20049;-70
2020/12/09 07:10:05;;;;;;;74.53;34.38;;;;;;;-2.35;100.00;97756.88;5063402;28;20044;-71
2020/12/09 07:12:31;;;;;;;78.25;36.15;;;;;;;-2.48;100.00;97760.63;5067880;28;20090;-73
2020/12/09 07:14:58;;;;;;;78.97;37.50;;;;;;;-2.44;100.00;97753.66;5068290;28;20469;-70
2020/12/09 07:17:26;;;;;;;74.22;34.60;;;;;;;-2.26;100.00;97752.38;5071216;28;20049;-72
2020/12/09 07:19:53;;;;;;;75.43;35.38;;;;;;;-2.43;100.00;97755.38;5072131;28;20079;-71
2020/12/09 07:22:19;;;;;;;67.68;33.60;;;;;;;-2.53;100.00;97739.38;5070132;28;20557;-72
2020/12/09 07:24:50;;;;;;;68.30;32.83;;;;;;;-2.31;99.41;97755.06;5066532;28;20483;-71
2020/12/09 07:27:16;;;;;;;73.50;34.83;;;;;;;-2.44;99.77;97758.81;5069698;28;20474;-70
2020/12/09 07:29:44;;;;;;;71.13;35.55;;;;;;;-2.50;100.00;97769.22;5067496;28;20044;-71
2020/12/09 07:32:10;;;;;;;67.13;33.70;;;;;;;-2.41;100.00;97775.00;5070813;28;20045;-72
2020/12/09 07:34:49;;;;;;;78.63;33.63;;;;;;;-2.50;99.79;97758.94;5068294;28;20037;-69
2020/12/09 07:37:17;;;;;;;70.65;33.78;;;;;;;-2.42;99.31;97773.28;5070058;28;20048;-69
2020/12/09 07:39:42;;;;;;;79.65;36.67;;;;;;;-2.27;99.63;97768.66;5067380;28;20120;-71
2020/12/09 07:42:08;;;;;;;74.30;34.50;;;;;;;-2.42;100.00;97751.94;5066477;28;20090;-71
2020/12/09 07:44:42;;;;;;;70.50;33.65;;;;;;;-2.53;100.00;97754.75;5066610;28;20048;-72
2020/12/09 07:47:09;;;;;;;61.88;30.77;;;;;;;-2.49;99.67;97763.22;5069000;28;20056;-71
2020/12/09 07:49:35;;;;;;;68.65;32.53;;;;;;;-2.58;100.00;97769.41;5067043;28;20124;-71
2020/12/09 07:52:17;;;;;;;67.93;32.67;;;;;;;-2.50;100.00;97753.81;5070187;28;20511;-71
2020/12/09 07:54:43;;;;;;;68.18;33.45;;;;;;;-2.41;99.58;97766.44;5068915;28;20056;-71
2020/12/09 07:57:09;;;;;;;62.97;32.83;;;;;;;-2.41;98.74;97774.13;5066415;28;20101;-75
2020/12/09 07:59:35;;;;;;;66.03;30.45;;;;;;;-2.58;99.36;97764.28;5068567;28;20045;-71
2020/12/09 08:02:22;;;;;;;66.35;32.63;;;;;;;-2.57;99.29;97777.06;5067573;28;20048;-71
2020/12/09 08:05:05;;;;;;;68.03;31.15;;;;;;;-2.52;99.94;97782.94;5084340;28;20576;-73
2020/12/09 08:07:31;;;;;;;65.38;32.47;;;;;;;-2.53;100.00;97791.53;5071440;28;20078;-75
2020/12/09 08:10:08;;;;;;;68.20;32.15;;;;;;;-2.52;100.00;97795.78;5056317;28;20045;-75
2020/12/09 08:12:36;;;;;;;64.55;32.40;;;;;;;-2.49;99.02;97796.59;5045888;28;20070;-72
2020/12/09 08:15:04;;;;;;;73.10;33.03;;;;;;;-2.67;100.00;97788.44;5044851;28;20470;-73
2020/12/09 08:17:31;;;;;;;70.10;33.45;;;;;;;-2.53;99.59;97814.63;5059425;28;20117;-71
2020/12/09 08:20:07;;;;;;;67.35;32.67;;;;;;;-2.60;99.80;97819.94;5060227;28;20060;-76
2020/12/09 08:22:50;;;;;;;70.10;32.70;;;;;;;-2.54;98.75;97819.78;5065523;28;20439;-70
2020/12/09 08:25:16;;;;;;;68.47;32.05;;;;;;;-2.41;99.35;97822.91;5072155;28;20044;-71
2020/12/09 08:27:44;;;;;;;69.95;33.38;;;;;;;-2.50;98.57;97818.00;5072017;28;20041;-71
2020/12/09 08:30:22;;;;;;;71.18;34.03;;;;;;;-2.26;97.84;97809.69;5069101;28;20048;-71
2020/12/09 08:32:54;;;;;;;74.35;33.40;;;;;;;-2.54;99.75;97805.22;5071661;28;20461;-71
2020/12/09 08:35:20;;;;;;;78.57;35.73;;;;;;;-2.41;100.00;97815.19;5072080;28;20044;-71
2020/12/09 08:37:45;;;;;;;70.28;34.17;;;;;;;-2.41;100.00;97815.19;5073382;28;20047;-71
2020/12/09 08:40:11;;;;;;;70.38;33.92;;;;;;;-2.35;99.65;97810.78;5071928;28;20040;-72
2020/12/09 08:42:37;;;;;;;68.05;33.38;;;;;;;-2.45;100.00;97819.56;5070636;28;20402;-73
2020/12/09 08:45:04;;;;;;;77.80;35.75;;;;;;;-2.44;100.00;97813.56;5071633;28;20045;-71
2020/12/09 08:47:30;;;;;;;67.72;32.65;;;;;;;-2.42;98.75;97809.22;5071912;28;20055;-72
2020/12/09 08:49:55;;;;;;;70.35;32.88;;;;;;;-2.37;98.66;97812.53;5072896;28;20045;-71
2020/12/09 08:52:27;;;;;;;73.25;35.05;;;;;;;-2.44;99.17;97821.28;5073601;28;20090;-73
2020/12/09 08:54:53;;;;;;;70.00;35.17;;;;;;;-2.38;98.88;97830.53;5071282;28;20048;-72
2020/12/09 08:57:19;;;;;;;63.97;29.80;;;;;;;-2.32;97.30;97825.25;5073302;28;20080;-71
2020/12/09 08:59:44;;;;;;;67.18;31.35;;;;;;;-2.44;97.72;97818.69;5069208;28;20526;-74
2020/12/09 09:02:10;;;;;;;65.88;31.50;;;;;;;-2.33;97.95;97818.44;5071636;28;20048;-73
2020/12/09 09:04:36;;;;;;;72.93;34.25;;;;;;;-2.40;99.53;97817.72;5071635;28;20048;-73
2020/12/09 09:07:03;;;;;;;77.05;35.05;;;;;;;-2.46;100.00;97820.44;5072077;28;20044;-72
2020/12/09 09:09:29;;;;;;;67.38;32.55;;;;;;;-2.44;98.84;97812.72;5071091;28;20075;-71
2020/12/09 09:11:58;;;;;;;66.43;32.95;;;;;;;-2.38;98.17;97825.41;5068493;28;20045;-70
2020/12/09 09:14:23;;;;;;;65.80;30.77;;;;;;;-2.37;98.05;97819.41;5071857;28;20101;-70
2020/12/09 09:16:51;;;;;;;70.18;32.38;;;;;;;-2.40;99.36;97816.91;5071491;28;20048;-71
2020/12/09 09:19:17;;;;;;;63.67;32.22;;;;;;;-2.29;98.50;97825.19;5072056;28;20098;-70
2020/12/09 09:21:43;;;;;;;69.70;32.95;;;;;;;-2.30;98.62;97823.50;5073625;28;20048;-71
2020/12/09 09:24:08;;;;;;;64.68;32.22;;;;;;;-2.16;98.74;97836.00;5071718;28;20053;-72
2020/12/09 09:26:35;;;;;;;66.35;32.10;;;;;;;-2.24;96.87;97832.75;5066533;28;20044;-74
2020/12/09 09:29:01;;;;;;;64.30;31.23;;;;;;;-2.19;96.19;97847.19;5073582;28;20071;-72
2020/12/09 09:31:27;;;;;;;63.58;31.05;;;;;;;-2.20;96.57;97837.78;5073184;28;20071;-77
2020/12/09 09:33:53;;;;;;;59.65;30.65;;;;;;;-2.12;95.69;97829.91;5071988;28;20139;-72
2020/12/09 09:36:19;;;;;;;67.65;30.38;;;;;;;-2.30;96.63;97822.66;5071251;28;20047;-73
2020/12/09 09:38:44;;;;;;;56.63;28.23;;;;;;;-2.27;95.68;97833.72;5069811;28;20372;-76
2020/12/09 09:41:10;;;;;;;59.88;28.70;;;;;;;-2.46;96.78;97814.47;5053169;28;20477;-73
2020/12/09 09:43:36;;;;;;;68.13;32.30;;;;;;;-2.31;97.51;97821.81;5057073;28;20052;-72
2020/12/09 09:46:02;;;;;;;55.15;27.98;;;;;;;-2.24;96.08;97810.53;5072954;28;20072;-72
2020/12/09 09:48:28;;;;;;;61.83;29.00;;;;;;;-2.30;96.19;97820.06;5070092;28;20060;-78
2020/12/09 09:50:54;;;;;;;60.60;30.50;;;;;;;-2.22;96.25;97815.63;5072407;28;20066;-71
2020/12/09 09:53:20;;;;;;;64.78;30.80;;;;;;;-2.27;96.50;97800.31;5070561;28;20089;-72
2020/12/09 09:55:46;;;;;;;64.35;30.58;;;;;;;-2.16;95.58;97803.47;5070356;28;20052;-72
2020/12/09 09:58:12;;;;;;;65.65;32.08;;;;;;;-2.14;95.86;97808.56;5067548;28;20056;-72
2020/12/09 10:00:38;;;;;;;65.32;31.88;;;;;;;-2.18;97.26;97805.22;5070297;28;20040;-73
2020/12/09 10:03:03;;;;;;;65.72;31.33;;;;;;;-2.18;96.58;97801.81;5072760;28;20151;-70
2020/12/09 10:05:29;;;;;;;64.03;32.13;;;;;;;-2.01;96.07;97814.22;5086368;28;20044;-77
2020/12/09 10:07:55;;;;;;;61.33;31.02;;;;;;;-2.04;97.30;97804.88;5072079;28;20415;-72
2020/12/09 10:10:21;;;;;;;67.95;32.03;;;;;;;-1.79;96.76;97814.53;5071444;28;20344;-72
2020/12/09 10:12:46;;;;;;;61.55;29.92;;;;;;;-1.77;94.24;97806.78;5061705;28;20456;-72
2020/12/09 10:15:12;;;;;;;58.10;29.83;;;;;;;-1.75;93.42;97807.56;5071099;28;20385;-72
2020/12/09 10:17:38;;;;;;;58.88;30.15;;;;;;;-1.83;94.06;97816.31;5071107;28;20041;-73
2020/12/09 10:20:04;;;;;;;69.80;33.45;;;;;;;-1.85;96.09;97802.69;5070534;28;20127;-72
2020/12/09 10:22:30;;;;;;;63.72;30.73;;;;;;;-1.76;94.37;97809.31;5071941;28;20621;-76
2020/12/09 10:24:56;;;;;;;60.97;29.88;;;;;;;-1.61;93.77;97797.75;5068566;28;20115;-72
2020/12/09 10:27:21;;;;;;;66.05;31.08;;;;;;;-1.75;94.02;97799.88;5071858;28;20047;-73
2020/12/09 10:29:48;;;;;;;64.93;30.42;;;;;;;-1.89;95.99;97801.06;5071016;28;20048;-71
2020/12/09 10:32:13;;;;;;;66.85;30.23;;;;;;;-2.04;96.78;97794.63;5072113;28;20059;-70
2020/12/09 10:34:40;;;;;;;63.70;30.77;;;;;;;-1.64;94.83;97808.13;5062602;28;20049;-71
2020/12/09 10:37:09;;;;;;;64.95;30.98;;;;;;;-1.80;95.51;97789.72;5072274;28;20044;-71
2020/12/09 10:39:36;;;;;;;63.17;31.05;;;;;;;-1.96;97.54;97783.28;5070752;28;20047;-72
2020/12/09 10:42:02;;;;;;;68.15;31.33;;;;;;;-2.02;96.65;97777.44;5072466;28;20045;-72
2020/12/09 10:44:28;;;;;;;70.10;33.60;;;;;;;-2.14;95.68;97754.63;5067354;28;20041;-71
2020/12/09 10:46:54;;;;;;;73.15;34.38;;;;;;;-1.82;96.36;97774.34;5069179;28;20063;-73
2020/12/09 10:49:20;;;;;;;73.40;34.05;;;;;;;-1.92;96.62;97778.03;5071535;28;20442;-72
2020/12/09 10:51:49;;;;;;;77.30;35.38;;;;;;;-1.90;96.59;97780.53;5069902;28;20101;-72
2020/12/09 10:54:15;;;;;;;68.88;33.05;;;;;;;-1.71;95.53;97756.06;5068342;28;20053;-72
2020/12/09 10:56:41;;;;;;;70.13;34.10;;;;;;;-1.71;94.59;97773.22;5071959;28;20051;-72
2020/12/09 10:59:07;;;;;;;67.43;31.17;;;;;;;-1.80;95.46;97764.84;5071275;28;20037;-72
2020/12/09 11:01:33;;;;;;;66.30;31.98;;;;;;;-1.71;94.36;97761.19;5070810;28;20059;-75
2020/12/09 11:03:59;;;;;;;69.80;32.10;;;;;;;-1.83;95.88;97757.22;5072345;28;20152;-71
2020/12/09 11:06:30;;;;;;;62.22;31.55;;;;;;;-1.60;93.72;97763.47;5071312;28;20116;-72
2020/12/09 11:08:57;;;;;;;65.82;31.02;;;;;;;-1.78;94.86;97758.84;5071671;28;20044;-70
2020/12/09 11:11:23;;;;;;;60.92;31.40;;;;;;;-1.72;95.00;97753.53;5070911;28;20402;-72
2020/12/09 11:13:50;;;;;;;57.55;28.92;;;;;;;-1.78;93.93;97740.84;5071163;28;20075;-72
2020/12/09 11:16:17;;;;;;;62.42;31.23;;;;;;;-1.89;94.29;97753.97;5071653;28;20488;-71
2020/12/09 11:18:43;;;;;;;69.43;31.83;;;;;;;-2.13;96.10;97758.91;5070448;28;20442;-72